sensor_id;sensor_type;location;lat;lon;timestamp;P1;durP1;ratioP1;P2;durP2;ratioP2
15563;SDS011;7883;52.554;13.364;2023-04-06T00:01:16;7.70;;;3.50;;
15563;SDS011;7883;52.554;13.364;2023-04-06T00:03:43;11.30;;;4.50;;
15563;SDS011;7883;52.554;13.364;2023-04-06T00:06:10;10.90;;;3.90;;
15563;SDS011;7883;52.554;13.364;2023-04-06T00:08:37;10.57;;;4.37;;
15563;SDS011;7883;52.554;13.364;2023-04-06T00:11:05;8.83;;;4.43;;
15563;SDS011;7883;52.554;13.364;2023-04-06T00:13:32;8.93;;;4.17;;
15563;SDS011;7883;52.554;13.364;2023-04-06T00:15:59;8.67;;;3.90;;
15563;SDS011;7883;52.554;13.364;2023-04-06T00:18:26;10.37;;;4.20;;
15563;SDS011;7883;52.554;13.364;2023-04-06T00:20:53;7.03;;;3.53;;
15563;SDS011;7883;52.554;13.364;2023-04-06T00:23:20;11.13;;;4.10;;
15563;SDS011;7883;52.554;13.364;2023-04-06T00:25:47;16.50;;;5.80;;
15563;SDS011;7883;52.554;13.364;2023-04-06T00:28:16;13.93;;;5.93;;
15563;SDS011;7883;52.554;13.364;2023-04-06T00:30:46;12.17;;;5.13;;
15563;SDS011;7883;52.554;13.364;2023-04-06T00:33:16;8.37;;;4.10;;
15563;SDS011;7883;52.554;13.364;2023-04-06T00:35:43;9.07;;;3.57;;
15563;SDS011;7883;52.554;13.364;2023-04-06T00:38:10;8.05;;;3.70;;
15563;SDS011;7883;52.554;13.364;2023-04-06T00:40:37;7.23;;;3.57;;
15563;SDS011;7883;52.554;13.364;2023-04-06T00:43:05;11.17;;;4.93;;
15563;SDS011;7883;52.554;13.364;2023-04-06T00:45:33;9.07;;;3.70;;
15563;SDS011;7883;52.554;13.364;2023-04-06T00:48:01;7.03;;;3.63;;
15563;SDS011;7883;52.554;13.364;2023-04-06T00:50:28;9.60;;;3.70;;
15563;SDS011;7883;52.554;13.364;2023-04-06T00:52:55;9.20;;;3.80;;
15563;SDS011;7883;52.554;13.364;2023-04-06T00:55:22;8.70;;;3.70;;
15563;SDS011;7883;52.554;13.364;2023-04-06T00:57:52;7.73;;;3.57;;
15563;SDS011;7883;52.554;13.364;2023-04-06T01:00:19;9.10;;;3.80;;
15563;SDS011;7883;52.554;13.364;2023-04-06T01:02:48;8.30;;;3.37;;
15563;SDS011;7883;52.554;13.364;2023-04-06T01:05:15;8.00;;;3.43;;
15563;SDS011;7883;52.554;13.364;2023-04-06T01:07:42;6.10;;;3.07;;
15563;SDS011;7883;52.554;13.364;2023-04-06T01:10:09;8.57;;;3.30;;
15563;SDS011;7883;52.554;13.364;2023-04-06T01:12:36;7.40;;;3.53;;
15563;SDS011;7883;52.554;13.364;2023-04-06T01:15:04;9.90;;;3.50;;
15563;SDS011;7883;52.554;13.364;2023-04-06T01:17:32;9.27;;;3.47;;
15563;SDS011;7883;52.554;13.364;2023-04-06T01:20:01;12.67;;;4.00;;
15563;SDS011;7883;52.554;13.364;2023-04-06T01:22:30;5.57;;;3.20;;
15563;SDS011;7883;52.554;13.364;2023-04-06T01:24:57;10.07;;;4.30;;
15563;SDS011;7883;52.554;13.364;2023-04-06T01:27:27;8.60;;;3.70;;
15563;SDS011;7883;52.554;13.364;2023-04-06T01:29:55;9.27;;;3.90;;
15563;SDS011;7883;52.554;13.364;2023-04-06T01:32:22;9.50;;;4.17;;
15563;SDS011;7883;52.554;13.364;2023-04-06T01:34:50;7.37;;;3.43;;
15563;SDS011;7883;52.554;13.364;2023-04-06T01:37:17;6.97;;;3.13;;
15563;SDS011;7883;52.554;13.364;2023-04-06T01:39:46;8.57;;;3.70;;
15563;SDS011;7883;52.554;13.364;2023-04-06T01:42:13;7.37;;;3.50;;
15563;SDS011;7883;52.554;13.364;2023-04-06T01:44:40;10.20;;;3.77;;
15563;SDS011;7883;52.554;13.364;2023-04-06T01:47:07;11.40;;;4.03;;
15563;SDS011;7883;52.554;13.364;2023-04-06T01:49:34;8.23;;;3.57;;
15563;SDS011;7883;52.554;13.364;2023-04-06T01:52:02;8.57;;;3.90;;
15563;SDS011;7883;52.554;13.364;2023-04-06T01:54:29;8.85;;;4.05;;
15563;SDS011;7883;52.554;13.364;2023-04-06T01:56:57;10.05;;;4.30;;
15563;SDS011;7883;52.554;13.364;2023-04-06T01:59:24;7.60;;;3.73;;
15563;SDS011;7883;52.554;13.364;2023-04-06T02:01:51;9.18;;;3.67;;
15563;SDS011;7883;52.554;13.364;2023-04-06T02:04:18;8.03;;;4.00;;
15563;SDS011;7883;52.554;13.364;2023-04-06T02:06:46;9.87;;;3.93;;
15563;SDS011;7883;52.554;13.364;2023-04-06T02:09:13;7.30;;;3.67;;
15563;SDS011;7883;52.554;13.364;2023-04-06T02:11:40;7.70;;;3.43;;
15563;SDS011;7883;52.554;13.364;2023-04-06T02:14:09;9.50;;;3.90;;
15563;SDS011;7883;52.554;13.364;2023-04-06T02:16:36;8.50;;;3.97;;
15563;SDS011;7883;52.554;13.364;2023-04-06T02:19:03;7.90;;;3.60;;
15563;SDS011;7883;52.554;13.364;2023-04-06T02:21:30;7.70;;;3.75;;
15563;SDS011;7883;52.554;13.364;2023-04-06T02:23:57;7.33;;;3.53;;
15563;SDS011;7883;52.554;13.364;2023-04-06T02:26:24;10.93;;;3.47;;
15563;SDS011;7883;52.554;13.364;2023-04-06T02:28:51;11.43;;;3.83;;
15563;SDS011;7883;52.554;13.364;2023-04-06T02:31:20;7.73;;;3.70;;
15563;SDS011;7883;52.554;13.364;2023-04-06T02:33:47;9.07;;;3.43;;
15563;SDS011;7883;52.554;13.364;2023-04-06T02:36:14;9.47;;;3.80;;
15563;SDS011;7883;52.554;13.364;2023-04-06T02:38:41;10.57;;;3.77;;
15563;SDS011;7883;52.554;13.364;2023-04-06T02:41:08;11.23;;;3.90;;
15563;SDS011;7883;52.554;13.364;2023-04-06T02:43:36;9.60;;;3.97;;
15563;SDS011;7883;52.554;13.364;2023-04-06T02:46:03;7.93;;;3.60;;
15563;SDS011;7883;52.554;13.364;2023-04-06T02:48:31;8.23;;;4.17;;
15563;SDS011;7883;52.554;13.364;2023-04-06T02:51:01;8.77;;;3.67;;
15563;SDS011;7883;52.554;13.364;2023-04-06T02:53:28;7.40;;;3.73;;
15563;SDS011;7883;52.554;13.364;2023-04-06T02:55:55;8.77;;;3.90;;
15563;SDS011;7883;52.554;13.364;2023-04-06T02:58:22;10.70;;;4.20;;
15563;SDS011;7883;52.554;13.364;2023-04-06T03:00:49;9.70;;;4.20;;
15563;SDS011;7883;52.554;13.364;2023-04-06T03:03:16;8.93;;;4.38;;
15563;SDS011;7883;52.554;13.364;2023-04-06T03:05:45;10.97;;;3.80;;
15563;SDS011;7883;52.554;13.364;2023-04-06T03:08:12;8.10;;;4.05;;
15563;SDS011;7883;52.554;13.364;2023-04-06T03:10:39;7.05;;;3.67;;
15563;SDS011;7883;52.554;13.364;2023-04-06T03:13:06;11.38;;;4.32;;
15563;SDS011;7883;52.554;13.364;2023-04-06T03:15:33;8.88;;;4.00;;
15563;SDS011;7883;52.554;13.364;2023-04-06T03:18:00;10.23;;;4.07;;
15563;SDS011;7883;52.554;13.364;2023-04-06T03:20:28;12.55;;;5.10;;
15563;SDS011;7883;52.554;13.364;2023-04-06T03:22:58;9.77;;;4.00;;
15563;SDS011;7883;52.554;13.364;2023-04-06T03:25:26;11.80;;;4.05;;
15563;SDS011;7883;52.554;13.364;2023-04-06T03:27:53;9.70;;;3.85;;
15563;SDS011;7883;52.554;13.364;2023-04-06T03:30:20;11.57;;;4.13;;
15563;SDS011;7883;52.554;13.364;2023-04-06T03:32:47;8.40;;;3.63;;
15563;SDS011;7883;52.554;13.364;2023-04-06T03:35:14;9.25;;;3.72;;
15563;SDS011;7883;52.554;13.364;2023-04-06T03:37:41;8.27;;;3.67;;
15563;SDS011;7883;52.554;13.364;2023-04-06T03:40:10;9.48;;;3.80;;
15563;SDS011;7883;52.554;13.364;2023-04-06T03:42:37;8.63;;;3.58;;
15563;SDS011;7883;52.554;13.364;2023-04-06T03:45:04;10.85;;;4.32;;
15563;SDS011;7883;52.554;13.364;2023-04-06T03:47:32;10.10;;;4.00;;
15563;SDS011;7883;52.554;13.364;2023-04-06T03:49:59;9.18;;;4.50;;
15563;SDS011;7883;52.554;13.364;2023-04-06T03:52:27;10.23;;;4.30;;
15563;SDS011;7883;52.554;13.364;2023-04-06T03:54:54;9.70;;;4.72;;
15563;SDS011;7883;52.554;13.364;2023-04-06T03:57:23;10.82;;;4.72;;
15563;SDS011;7883;52.554;13.364;2023-04-06T03:59:53;12.68;;;4.20;;
15563;SDS011;7883;52.554;13.364;2023-04-06T04:02:20;12.80;;;4.82;;
15563;SDS011;7883;52.554;13.364;2023-04-06T04:04:47;12.88;;;5.72;;
15563;SDS011;7883;52.554;13.364;2023-04-06T04:07:14;11.95;;;5.00;;
15563;SDS011;7883;52.554;13.364;2023-04-06T04:09:41;8.70;;;4.43;;
15563;SDS011;7883;52.554;13.364;2023-04-06T04:12:08;12.43;;;4.60;;
15563;SDS011;7883;52.554;13.364;2023-04-06T04:14:37;13.50;;;4.68;;
15563;SDS011;7883;52.554;13.364;2023-04-06T04:17:06;9.38;;;4.18;;
15563;SDS011;7883;52.554;13.364;2023-04-06T04:19:33;9.18;;;4.55;;
15563;SDS011;7883;52.554;13.364;2023-04-06T04:22:00;8.85;;;4.60;;
15563;SDS011;7883;52.554;13.364;2023-04-06T04:24:29;8.38;;;4.15;;
15563;SDS011;7883;52.554;13.364;2023-04-06T04:26:56;11.43;;;4.80;;
15563;SDS011;7883;52.554;13.364;2023-04-06T04:29:23;10.35;;;4.75;;
15563;SDS011;7883;52.554;13.364;2023-04-06T04:31:52;13.45;;;7.57;;
15563;SDS011;7883;52.554;13.364;2023-04-06T04:34:21;15.90;;;8.82;;
15563;SDS011;7883;52.554;13.364;2023-04-06T04:36:50;11.85;;;4.95;;
15563;SDS011;7883;52.554;13.364;2023-04-06T04:39:17;10.27;;;4.93;;
15563;SDS011;7883;52.554;13.364;2023-04-06T04:41:45;10.63;;;4.88;;
15563;SDS011;7883;52.554;13.364;2023-04-06T04:44:12;12.95;;;5.95;;
15563;SDS011;7883;52.554;13.364;2023-04-06T04:46:40;12.03;;;5.50;;
15563;SDS011;7883;52.554;13.364;2023-04-06T04:49:09;14.20;;;6.50;;
15563;SDS011;7883;52.554;13.364;2023-04-06T04:51:36;13.00;;;6.10;;
15563;SDS011;7883;52.554;13.364;2023-04-06T04:54:03;14.55;;;6.10;;
15563;SDS011;7883;52.554;13.364;2023-04-06T04:56:30;16.20;;;6.40;;
15563;SDS011;7883;52.554;13.364;2023-04-06T04:58:58;12.27;;;5.80;;
15563;SDS011;7883;52.554;13.364;2023-04-06T05:01:25;13.93;;;5.77;;
15563;SDS011;7883;52.554;13.364;2023-04-06T05:03:52;13.73;;;6.20;;
15563;SDS011;7883;52.554;13.364;2023-04-06T05:06:20;16.20;;;5.93;;
15563;SDS011;7883;52.554;13.364;2023-04-06T05:08:48;21.20;;;7.33;;
15563;SDS011;7883;52.554;13.364;2023-04-06T05:11:15;13.40;;;6.50;;
15563;SDS011;7883;52.554;13.364;2023-04-06T05:13:42;15.90;;;6.90;;
15563;SDS011;7883;52.554;13.364;2023-04-06T05:16:09;16.00;;;7.13;;
15563;SDS011;7883;52.554;13.364;2023-04-06T05:18:40;18.83;;;7.57;;
15563;SDS011;7883;52.554;13.364;2023-04-06T05:21:07;16.17;;;7.03;;
15563;SDS011;7883;52.554;13.364;2023-04-06T05:23:38;13.43;;;6.97;;
15563;SDS011;7883;52.554;13.364;2023-04-06T05:26:05;16.53;;;6.73;;
15563;SDS011;7883;52.554;13.364;2023-04-06T05:28:32;14.87;;;7.20;;
15563;SDS011;7883;52.554;13.364;2023-04-06T05:30:59;13.57;;;6.90;;
15563;SDS011;7883;52.554;13.364;2023-04-06T05:33:28;13.87;;;6.53;;
15563;SDS011;7883;52.554;13.364;2023-04-06T05:35:55;14.37;;;6.53;;
15563;SDS011;7883;52.554;13.364;2023-04-06T05:38:22;16.43;;;7.27;;
15563;SDS011;7883;52.554;13.364;2023-04-06T05:40:51;14.73;;;6.30;;
15563;SDS011;7883;52.554;13.364;2023-04-06T05:43:18;14.97;;;6.80;;
15563;SDS011;7883;52.554;13.364;2023-04-06T05:45:45;16.13;;;7.10;;
15563;SDS011;7883;52.554;13.364;2023-04-06T05:48:12;12.27;;;6.20;;
15563;SDS011;7883;52.554;13.364;2023-04-06T05:50:40;13.37;;;6.03;;
15563;SDS011;7883;52.554;13.364;2023-04-06T05:53:07;11.77;;;6.23;;
15563;SDS011;7883;52.554;13.364;2023-04-06T05:55:34;13.53;;;6.17;;
15563;SDS011;7883;52.554;13.364;2023-04-06T05:58:03;12.25;;;6.38;;
15563;SDS011;7883;52.554;13.364;2023-04-06T06:00:30;13.63;;;6.50;;
15563;SDS011;7883;52.554;13.364;2023-04-06T06:02:57;13.25;;;6.65;;
15563;SDS011;7883;52.554;13.364;2023-04-06T06:05:25;16.70;;;7.47;;
15563;SDS011;7883;52.554;13.364;2023-04-06T06:07:52;12.57;;;5.80;;
15563;SDS011;7883;52.554;13.364;2023-04-06T06:10:19;13.83;;;6.50;;
15563;SDS011;7883;52.554;13.364;2023-04-06T06:12:46;15.30;;;6.80;;
15563;SDS011;7883;52.554;13.364;2023-04-06T06:15:17;14.43;;;6.30;;
15563;SDS011;7883;52.554;13.364;2023-04-06T06:17:44;18.73;;;6.63;;
15563;SDS011;7883;52.554;13.364;2023-04-06T06:20:12;13.73;;;7.73;;
15563;SDS011;7883;52.554;13.364;2023-04-06T06:22:39;14.40;;;6.47;;
15563;SDS011;7883;52.554;13.364;2023-04-06T06:25:06;12.13;;;6.13;;
15563;SDS011;7883;52.554;13.364;2023-04-06T06:27:34;12.17;;;6.23;;
15563;SDS011;7883;52.554;13.364;2023-04-06T06:30:01;12.10;;;6.10;;
15563;SDS011;7883;52.554;13.364;2023-04-06T06:32:30;13.93;;;6.50;;
15563;SDS011;7883;52.554;13.364;2023-04-06T06:34:59;14.50;;;5.93;;
15563;SDS011;7883;52.554;13.364;2023-04-06T06:37:27;12.53;;;6.20;;
15563;SDS011;7883;52.554;13.364;2023-04-06T06:39:54;13.67;;;6.00;;
15563;SDS011;7883;52.554;13.364;2023-04-06T06:42:21;12.93;;;6.50;;
15563;SDS011;7883;52.554;13.364;2023-04-06T06:44:48;14.70;;;6.40;;
15563;SDS011;7883;52.554;13.364;2023-04-06T06:47:15;14.13;;;7.10;;
15563;SDS011;7883;52.554;13.364;2023-04-06T06:49:44;11.67;;;5.80;;
15563;SDS011;7883;52.554;13.364;2023-04-06T06:52:11;13.18;;;6.10;;
15563;SDS011;7883;52.554;13.364;2023-04-06T06:54:38;12.20;;;5.78;;
15563;SDS011;7883;52.554;13.364;2023-04-06T06:57:05;11.67;;;6.27;;
15563;SDS011;7883;52.554;13.364;2023-04-06T06:59:33;17.10;;;6.97;;
15563;SDS011;7883;52.554;13.364;2023-04-06T07:02:00;13.97;;;6.37;;
15563;SDS011;7883;52.554;13.364;2023-04-06T07:04:27;14.43;;;6.07;;
15563;SDS011;7883;52.554;13.364;2023-04-06T07:06:55;14.50;;;5.67;;
15563;SDS011;7883;52.554;13.364;2023-04-06T07:09:24;13.03;;;5.40;;
15563;SDS011;7883;52.554;13.364;2023-04-06T07:11:53;12.03;;;4.93;;
15563;SDS011;7883;52.554;13.364;2023-04-06T07:14:21;11.97;;;5.53;;
15563;SDS011;7883;52.554;13.364;2023-04-06T07:16:49;14.63;;;5.40;;
15563;SDS011;7883;52.554;13.364;2023-04-06T07:19:16;11.90;;;5.70;;
15563;SDS011;7883;52.554;13.364;2023-04-06T07:21:43;11.10;;;5.30;;
15563;SDS011;7883;52.554;13.364;2023-04-06T07:24:13;13.97;;;4.57;;
15563;SDS011;7883;52.554;13.364;2023-04-06T07:26:40;10.02;;;4.82;;
15563;SDS011;7883;52.554;13.364;2023-04-06T07:29:08;13.00;;;5.60;;
15563;SDS011;7883;52.554;13.364;2023-04-06T07:31:35;13.53;;;5.93;;
15563;SDS011;7883;52.554;13.364;2023-04-06T07:34:05;13.33;;;4.93;;
15563;SDS011;7883;52.554;13.364;2023-04-06T07:36:32;10.27;;;4.93;;
15563;SDS011;7883;52.554;13.364;2023-04-06T07:38:59;18.47;;;9.03;;
15563;SDS011;7883;52.554;13.364;2023-04-06T07:41:29;18.63;;;9.47;;
15563;SDS011;7883;52.554;13.364;2023-04-06T07:43:56;17.63;;;7.33;;
15563;SDS011;7883;52.554;13.364;2023-04-06T07:46:23;16.77;;;7.33;;
15563;SDS011;7883;52.554;13.364;2023-04-06T07:48:51;13.43;;;5.63;;
15563;SDS011;7883;52.554;13.364;2023-04-06T07:51:18;11.43;;;4.80;;
15563;SDS011;7883;52.554;13.364;2023-04-06T07:53:45;13.53;;;6.53;;
15563;SDS011;7883;52.554;13.364;2023-04-06T07:56:12;12.10;;;5.27;;
15563;SDS011;7883;52.554;13.364;2023-04-06T07:58:41;12.73;;;5.87;;
15563;SDS011;7883;52.554;13.364;2023-04-06T08:01:08;11.30;;;4.70;;
15563;SDS011;7883;52.554;13.364;2023-04-06T08:03:36;9.27;;;4.43;;
15563;SDS011;7883;52.554;13.364;2023-04-06T08:06:03;10.97;;;4.13;;
15563;SDS011;7883;52.554;13.364;2023-04-06T08:08:31;9.47;;;4.73;;
15563;SDS011;7883;52.554;13.364;2023-04-06T08:10:58;13.17;;;4.77;;
15563;SDS011;7883;52.554;13.364;2023-04-06T08:13:27;9.77;;;4.53;;
15563;SDS011;7883;52.554;13.364;2023-04-06T08:15:56;10.57;;;4.30;;
15563;SDS011;7883;52.554;13.364;2023-04-06T08:18:23;12.67;;;4.63;;
15563;SDS011;7883;52.554;13.364;2023-04-06T08:20:51;10.03;;;4.40;;
15563;SDS011;7883;52.554;13.364;2023-04-06T08:23:18;13.23;;;5.03;;
15563;SDS011;7883;52.554;13.364;2023-04-06T08:25:45;11.37;;;4.67;;
15563;SDS011;7883;52.554;13.364;2023-04-06T08:28:12;11.97;;;5.47;;
15563;SDS011;7883;52.554;13.364;2023-04-06T08:30:39;12.53;;;4.63;;
15563;SDS011;7883;52.554;13.364;2023-04-06T08:33:08;10.10;;;4.00;;
15563;SDS011;7883;52.554;13.364;2023-04-06T08:35:35;9.47;;;3.63;;
15563;SDS011;7883;52.554;13.364;2023-04-06T08:38:02;5.63;;;2.97;;
15563;SDS011;7883;52.554;13.364;2023-04-06T08:40:35;9.43;;;4.00;;
15563;SDS011;7883;52.554;13.364;2023-04-06T08:43:03;6.93;;;2.93;;
15563;SDS011;7883;52.554;13.364;2023-04-06T08:45:36;8.10;;;3.70;;
15563;SDS011;7883;52.554;13.364;2023-04-06T08:48:04;12.47;;;5.43;;
15563;SDS011;7883;52.554;13.364;2023-04-06T08:50:33;14.27;;;4.23;;
15563;SDS011;7883;52.554;13.364;2023-04-06T08:53:01;16.23;;;8.10;;
15563;SDS011;7883;52.554;13.364;2023-04-06T08:55:29;10.93;;;4.30;;
15563;SDS011;7883;52.554;13.364;2023-04-06T08:57:57;13.63;;;3.57;;
15563;SDS011;7883;52.554;13.364;2023-04-06T09:00:30;10.83;;;3.83;;
15563;SDS011;7883;52.554;13.364;2023-04-06T09:02:58;7.53;;;3.30;;
15563;SDS011;7883;52.554;13.364;2023-04-06T09:05:25;8.83;;;3.23;;
15563;SDS011;7883;52.554;13.364;2023-04-06T09:07:54;10.40;;;4.13;;
15563;SDS011;7883;52.554;13.364;2023-04-06T09:10:21;11.40;;;5.33;;
15563;SDS011;7883;52.554;13.364;2023-04-06T09:12:50;7.53;;;2.97;;
15563;SDS011;7883;52.554;13.364;2023-04-06T09:15:19;6.63;;;2.77;;
15563;SDS011;7883;52.554;13.364;2023-04-06T09:17:48;9.00;;;4.03;;
15563;SDS011;7883;52.554;13.364;2023-04-06T09:20:22;10.83;;;3.00;;
15563;SDS011;7883;52.554;13.364;2023-04-06T09:22:50;5.33;;;2.70;;
15563;SDS011;7883;52.554;13.364;2023-04-06T09:25:19;7.77;;;3.37;;
15563;SDS011;7883;52.554;13.364;2023-04-06T09:27:48;6.60;;;2.67;;
15563;SDS011;7883;52.554;13.364;2023-04-06T09:30:24;9.07;;;3.00;;
15563;SDS011;7883;52.554;13.364;2023-04-06T09:32:55;6.27;;;2.80;;
15563;SDS011;7883;52.554;13.364;2023-04-06T09:35:24;6.43;;;2.87;;
15563;SDS011;7883;52.554;13.364;2023-04-06T09:37:56;6.83;;;2.97;;
15563;SDS011;7883;52.554;13.364;2023-04-06T09:40:27;8.80;;;4.47;;
15563;SDS011;7883;52.554;13.364;2023-04-06T09:42:55;7.87;;;3.50;;
15563;SDS011;7883;52.554;13.364;2023-04-06T09:45:24;8.43;;;3.83;;
15563;SDS011;7883;52.554;13.364;2023-04-06T09:47:53;8.83;;;2.90;;
15563;SDS011;7883;52.554;13.364;2023-04-06T09:50:21;10.00;;;4.77;;
15563;SDS011;7883;52.554;13.364;2023-04-06T09:52:50;7.93;;;3.13;;
15563;SDS011;7883;52.554;13.364;2023-04-06T09:55:23;8.53;;;3.23;;
15563;SDS011;7883;52.554;13.364;2023-04-06T09:57:57;7.60;;;3.60;;
15563;SDS011;7883;52.554;13.364;2023-04-06T10:00:30;8.90;;;2.87;;
15563;SDS011;7883;52.554;13.364;2023-04-06T10:03:04;7.60;;;3.47;;
15563;SDS011;7883;52.554;13.364;2023-04-06T10:05:41;9.10;;;4.23;;
15563;SDS011;7883;52.554;13.364;2023-04-06T10:08:12;5.30;;;2.53;;
15563;SDS011;7883;52.554;13.364;2023-04-06T10:10:40;8.63;;;3.50;;
15563;SDS011;7883;52.554;13.364;2023-04-06T10:13:10;7.63;;;3.13;;
15563;SDS011;7883;52.554;13.364;2023-04-06T10:15:38;6.00;;;2.90;;
15563;SDS011;7883;52.554;13.364;2023-04-06T10:18:05;7.40;;;2.50;;
15563;SDS011;7883;52.554;13.364;2023-04-06T10:20:35;5.07;;;2.03;;
15563;SDS011;7883;52.554;13.364;2023-04-06T10:23:08;4.07;;;1.87;;
15563;SDS011;7883;52.554;13.364;2023-04-06T10:25:51;6.93;;;1.80;;
15563;SDS011;7883;52.554;13.364;2023-04-06T10:28:21;5.30;;;2.63;;
15563;SDS011;7883;52.554;13.364;2023-04-06T10:30:49;7.80;;;3.77;;
15563;SDS011;7883;52.554;13.364;2023-04-06T10:33:22;4.13;;;2.20;;
15563;SDS011;7883;52.554;13.364;2023-04-06T10:35:51;5.73;;;2.30;;
15563;SDS011;7883;52.554;13.364;2023-04-06T10:38:19;4.23;;;2.27;;
15563;SDS011;7883;52.554;13.364;2023-04-06T10:40:48;3.90;;;2.37;;
15563;SDS011;7883;52.554;13.364;2023-04-06T10:43:18;5.33;;;2.10;;
15563;SDS011;7883;52.554;13.364;2023-04-06T10:45:54;4.03;;;1.90;;
15563;SDS011;7883;52.554;13.364;2023-04-06T10:48:24;5.80;;;2.10;;
15563;SDS011;7883;52.554;13.364;2023-04-06T10:50:52;4.03;;;2.03;;
15563;SDS011;7883;52.554;13.364;2023-04-06T10:53:21;4.33;;;1.90;;
15563;SDS011;7883;52.554;13.364;2023-04-06T10:55:50;5.50;;;2.20;;
15563;SDS011;7883;52.554;13.364;2023-04-06T10:58:18;6.10;;;2.47;;
15563;SDS011;7883;52.554;13.364;2023-04-06T11:00:51;3.80;;;2.20;;
15563;SDS011;7883;52.554;13.364;2023-04-06T11:03:18;3.73;;;1.50;;
15563;SDS011;7883;52.554;13.364;2023-04-06T11:05:46;3.27;;;1.57;;
15563;SDS011;7883;52.554;13.364;2023-04-06T11:08:24;5.33;;;2.10;;
15563;SDS011;7883;52.554;13.364;2023-04-06T11:11:03;5.50;;;2.50;;
15563;SDS011;7883;52.554;13.364;2023-04-06T11:13:37;6.40;;;2.53;;
15563;SDS011;7883;52.554;13.364;2023-04-06T11:16:12;7.10;;;2.20;;
15563;SDS011;7883;52.554;13.364;2023-04-06T11:18:49;3.73;;;2.23;;
15563;SDS011;7883;52.554;13.364;2023-04-06T11:21:17;8.53;;;3.40;;
15563;SDS011;7883;52.554;13.364;2023-04-06T11:23:45;9.70;;;4.37;;
15563;SDS011;7883;52.554;13.364;2023-04-06T11:26:13;7.63;;;3.63;;
15563;SDS011;7883;52.554;13.364;2023-04-06T11:28:42;6.57;;;2.57;;
15563;SDS011;7883;52.554;13.364;2023-04-06T11:31:09;6.47;;;2.77;;
15563;SDS011;7883;52.554;13.364;2023-04-06T11:33:39;2.57;;;1.70;;
15563;SDS011;7883;52.554;13.364;2023-04-06T11:36:07;4.13;;;2.03;;
15563;SDS011;7883;52.554;13.364;2023-04-06T11:38:38;3.63;;;2.13;;
15563;SDS011;7883;52.554;13.364;2023-04-06T11:41:07;8.53;;;3.00;;
15563;SDS011;7883;52.554;13.364;2023-04-06T11:43:36;7.20;;;3.03;;
15563;SDS011;7883;52.554;13.364;2023-04-06T11:46:06;6.53;;;2.50;;
15563;SDS011;7883;52.554;13.364;2023-04-06T11:48:44;5.67;;;2.77;;
15563;SDS011;7883;52.554;13.364;2023-04-06T11:51:11;6.97;;;2.90;;
15563;SDS011;7883;52.554;13.364;2023-04-06T11:53:43;12.73;;;6.40;;
15563;SDS011;7883;52.554;13.364;2023-04-06T11:56:11;9.07;;;4.07;;
15563;SDS011;7883;52.554;13.364;2023-04-06T11:58:50;5.20;;;2.47;;
15563;SDS011;7883;52.554;13.364;2023-04-06T12:01:21;6.43;;;2.43;;
15563;SDS011;7883;52.554;13.364;2023-04-06T12:03:48;5.87;;;2.50;;
15563;SDS011;7883;52.554;13.364;2023-04-06T12:06:17;9.37;;;4.40;;
15563;SDS011;7883;52.554;13.364;2023-04-06T12:08:45;6.93;;;2.90;;
15563;SDS011;7883;52.554;13.364;2023-04-06T12:11:12;5.70;;;2.80;;
15563;SDS011;7883;52.554;13.364;2023-04-06T12:13:40;4.70;;;2.40;;
15563;SDS011;7883;52.554;13.364;2023-04-06T12:16:07;3.33;;;2.03;;
15563;SDS011;7883;52.554;13.364;2023-04-06T12:18:35;6.47;;;2.73;;
15563;SDS011;7883;52.554;13.364;2023-04-06T12:21:02;5.77;;;2.40;;
15563;SDS011;7883;52.554;13.364;2023-04-06T12:23:30;6.03;;;2.60;;
15563;SDS011;7883;52.554;13.364;2023-04-06T12:25:57;7.57;;;3.13;;
15563;SDS011;7883;52.554;13.364;2023-04-06T12:28:26;8.63;;;3.80;;
15563;SDS011;7883;52.554;13.364;2023-04-06T12:30:53;10.30;;;3.93;;
15563;SDS011;7883;52.554;13.364;2023-04-06T12:33:20;7.43;;;3.10;;
15563;SDS011;7883;52.554;13.364;2023-04-06T12:35:49;9.87;;;4.43;;
15563;SDS011;7883;52.554;13.364;2023-04-06T12:38:16;4.00;;;2.10;;
15563;SDS011;7883;52.554;13.364;2023-04-06T12:40:43;9.40;;;4.13;;
15563;SDS011;7883;52.554;13.364;2023-04-06T12:43:10;4.17;;;2.50;;
15563;SDS011;7883;52.554;13.364;2023-04-06T12:45:38;6.83;;;2.80;;
15563;SDS011;7883;52.554;13.364;2023-04-06T12:48:06;5.10;;;2.67;;
15563;SDS011;7883;52.554;13.364;2023-04-06T12:50:33;11.50;;;5.43;;
15563;SDS011;7883;52.554;13.364;2023-04-06T12:53:02;10.97;;;5.37;;
15563;SDS011;7883;52.554;13.364;2023-04-06T12:55:30;11.10;;;5.50;;
15563;SDS011;7883;52.554;13.364;2023-04-06T12:57:59;8.70;;;3.37;;
15563;SDS011;7883;52.554;13.364;2023-04-06T13:00:26;6.00;;;2.63;;
15563;SDS011;7883;52.554;13.364;2023-04-06T13:02:54;8.10;;;3.07;;
15563;SDS011;7883;52.554;13.364;2023-04-06T13:05:21;9.40;;;3.90;;
15563;SDS011;7883;52.554;13.364;2023-04-06T13:07:48;5.67;;;3.03;;
15563;SDS011;7883;52.554;13.364;2023-04-06T13:10:17;4.13;;;2.40;;
15563;SDS011;7883;52.554;13.364;2023-04-06T13:12:44;5.37;;;2.30;;
15563;SDS011;7883;52.554;13.364;2023-04-06T13:15:13;4.00;;;2.40;;
15563;SDS011;7883;52.554;13.364;2023-04-06T13:17:41;6.70;;;2.73;;
15563;SDS011;7883;52.554;13.364;2023-04-06T13:20:08;5.20;;;2.10;;
15563;SDS011;7883;52.554;13.364;2023-04-06T13:22:36;5.40;;;2.63;;
15563;SDS011;7883;52.554;13.364;2023-04-06T13:25:03;9.07;;;4.07;;
15563;SDS011;7883;52.554;13.364;2023-04-06T13:27:34;10.20;;;3.87;;
15563;SDS011;7883;52.554;13.364;2023-04-06T13:30:01;6.60;;;2.67;;
15563;SDS011;7883;52.554;13.364;2023-04-06T13:32:32;4.87;;;2.70;;
15563;SDS011;7883;52.554;13.364;2023-04-06T13:34:59;6.47;;;2.70;;
15563;SDS011;7883;52.554;13.364;2023-04-06T13:37:30;6.80;;;3.10;;
15563;SDS011;7883;52.554;13.364;2023-04-06T13:39:57;5.17;;;2.33;;
15563;SDS011;7883;52.554;13.364;2023-04-06T13:42:24;5.43;;;2.17;;
15563;SDS011;7883;52.554;13.364;2023-04-06T13:44:53;7.70;;;2.97;;
15563;SDS011;7883;52.554;13.364;2023-04-06T13:47:20;7.13;;;2.60;;
15563;SDS011;7883;52.554;13.364;2023-04-06T13:49:49;9.53;;;4.43;;
15563;SDS011;7883;52.554;13.364;2023-04-06T13:52:17;6.10;;;2.60;;
15563;SDS011;7883;52.554;13.364;2023-04-06T13:54:45;7.03;;;3.67;;
15563;SDS011;7883;52.554;13.364;2023-04-06T13:57:13;5.60;;;2.50;;
15563;SDS011;7883;52.554;13.364;2023-04-06T13:59:41;9.73;;;3.93;;
15563;SDS011;7883;52.554;13.364;2023-04-06T14:02:11;7.37;;;2.97;;
15563;SDS011;7883;52.554;13.364;2023-04-06T14:04:38;7.40;;;3.60;;
15563;SDS011;7883;52.554;13.364;2023-04-06T14:07:05;7.07;;;3.80;;
15563;SDS011;7883;52.554;13.364;2023-04-06T14:09:34;7.30;;;3.97;;
15563;SDS011;7883;52.554;13.364;2023-04-06T14:12:01;6.03;;;2.87;;
15563;SDS011;7883;52.554;13.364;2023-04-06T14:14:31;8.87;;;4.03;;
15563;SDS011;7883;52.554;13.364;2023-04-06T14:16:58;7.83;;;3.53;;
15563;SDS011;7883;52.554;13.364;2023-04-06T14:19:27;10.77;;;5.03;;
15563;SDS011;7883;52.554;13.364;2023-04-06T14:21:54;7.03;;;3.20;;
15563;SDS011;7883;52.554;13.364;2023-04-06T14:24:21;7.63;;;3.03;;
15563;SDS011;7883;52.554;13.364;2023-04-06T14:26:48;5.47;;;2.67;;
15563;SDS011;7883;52.554;13.364;2023-04-06T14:29:17;4.77;;;2.80;;
15563;SDS011;7883;52.554;13.364;2023-04-06T14:31:44;5.60;;;2.73;;
15563;SDS011;7883;52.554;13.364;2023-04-06T14:34:13;7.83;;;2.93;;
15563;SDS011;7883;52.554;13.364;2023-04-06T14:36:43;5.67;;;2.80;;
15563;SDS011;7883;52.554;13.364;2023-04-06T14:39:11;5.77;;;2.70;;
15563;SDS011;7883;52.554;13.364;2023-04-06T14:41:38;8.87;;;2.80;;
15563;SDS011;7883;52.554;13.364;2023-04-06T14:44:05;7.73;;;3.30;;
15563;SDS011;7883;52.554;13.364;2023-04-06T14:46:37;7.70;;;3.50;;
15563;SDS011;7883;52.554;13.364;2023-04-06T14:49:04;4.80;;;2.60;;